Time;durP1;ratioP1;P1;durP2;ratioP2;P2;SDS_P1;SDS_P2;PMS_P1;PMS_P2;Temp;Humidity;BMP_temperature;BMP_pressure;BME280_temperature;BME280_humidity;BME280_pressure;Samples;Min_cycle;Max_cycle;Signal;HPM_P1;HPM_P2
2023/04/29 00:00:14;;;;;;;;;;;;;;;8.16;69.70;99960.66;5092460;28;19919;-87
2023/04/29 00:02:49;;;;;;;;;;;;;;;8.27;69.64;99957.16;5091175;28;19912;-88
2023/04/29 00:05:26;;;;;;;;;;;;;;;8.32;69.22;99963.28;5107850;28;20346;-88
2023/04/29 00:07:58;;;;;;;;;;;;;;;8.20;69.25;99958.91;5093545;28;19969;-87
2023/04/29 00:10:34;;;;;;;;;;;;;;;8.26;69.30;99958.88;5112002;28;19915;-87
2023/04/29 00:13:03;;;;;;;;;;;;;;;8.18;69.30;99955.41;5090229;28;20752;-87
2023/04/29 00:15:28;;;;;;;;;;;;;;;8.07;69.47;99965.91;5092764;28;19947;-87
2023/04/29 00:20:50;;;;;;;;;;;;;;;8.11;69.22;99953.66;5092432;28;19912;-87
2023/04/29 00:23:26;;;;;;;;;;;;;;;8.23;69.27;99956.25;5091844;28;19917;-87
2023/04/29 00:25:52;;;;;;;;;;;;;;;8.27;68.26;99955.38;5092243;28;19919;-86
2023/04/29 00:28:17;;;;;;;;;;;;;;;8.10;69.12;99954.53;5092004;28;19908;-87
2023/04/29 00:30:43;;;;;;;;;;;;;;;8.06;69.36;99951.91;5093239;28;20355;-86
2023/04/29 00:36:11;;;;;;;;;;;;;;;7.96;69.47;99965.06;5112854;28;19918;-88
2023/04/29 00:42:12;;;;;;;;;;;;;;;7.81;69.80;99971.16;5043205;28;19924;-88
2023/04/29 00:51:00;;;;;;;;;;;;;;;8.02;69.53;99960.66;5049081;28;19966;-87
2023/04/29 00:53:26;;;;;;;;;;;;;;;7.96;69.69;99965.06;5048865;28;19924;-87
2023/04/29 00:56:06;;;;;;;;;;;;;;;8.00;69.44;99964.16;5032435;28;19978;-88
2023/04/29 01:04:39;;;;;;;;;;;;;;;7.74;69.37;99964.16;5048907;28;20406;-88
2023/04/29 01:07:18;;;;;;;;;;;;;;;7.64;69.52;99965.91;5048874;28;19913;-88
2023/04/29 01:10:35;;;;;;;;;;;;;;;7.62;69.42;99965.03;5048568;28;19917;-88
2023/04/29 01:37:58;;;;;;;;;;;;;;;7.44;70.21;99952.75;5054546;28;19951;-88
2023/04/29 01:41:08;;;;;;;;;;;;;;;7.45;70.21;99949.25;5023698;28;19920;-88
2023/04/29 01:43:42;;;;;;;;;;;;;;;7.59;69.51;99946.66;5000865;28;19913;-89
2023/04/29 01:46:13;;;;;;;;;;;;;;;7.52;69.80;99944.03;5029990;28;20125;-88
2023/04/29 01:48:39;;;;;;;;;;;;;;;7.45;70.85;99937.00;5009252;28;20028;-87
2023/04/29 01:51:06;;;;;;;;;;;;;;;7.47;70.46;99939.63;5008948;28;20458;-88
2023/04/29 01:53:31;;;;;;;;;;;;;;;7.32;71.13;99933.50;5008250;28;19913;-87
2023/04/29 01:56:14;;;;;;;;;;;;;;;7.57;70.46;99936.16;5008723;28;19951;-88
2023/04/29 01:58:42;;;;;;;;;;;;;;;7.81;69.67;99934.41;5007631;28;20409;-88
2023/04/29 02:04:36;;;;;;;;;;;;;;;;;;;;;
2023/04/29 02:13:23;;;;;;;;;;;;;;;7.31;71.10;99936.09;5001438;28;19955;-87
2023/04/29 02:15:48;;;;;;;;;;;;;;;7.15;70.96;99937.78;4989279;28;19910;-85
2023/04/29 02:18:14;;;;;;;;;;;;;;;6.98;71.19;99938.63;4995410;28;19920;-86
2023/04/29 02:20:39;;;;;;;;;;;;;;;6.94;70.96;99938.63;5031661;28;19913;-85
2023/04/29 02:23:05;;;;;;;;;;;;;;;6.90;70.77;99942.09;5047872;28;19970;-85
2023/04/29 02:25:51;;;;;;;;;;;;;;;6.77;71.33;99942.03;5060776;28;19924;-88
2023/04/29 02:28:22;;;;;;;;;;;;;;;6.97;70.86;99936.88;5040622;28;19924;-88
2023/04/29 02:30:47;;;;;;;;;;;;;;;6.98;70.53;99937.75;5048562;28;19912;-88
2023/04/29 02:33:13;;;;;;;;;;;;;;;7.04;70.82;99942.16;5048713;28;19913;-87
2023/04/29 02:39:25;;;;;;;;;;;;;;;6.81;71.38;99938.56;5087064;28;19911;-89
2023/04/29 02:41:53;;;;;;;;;;;;;;;6.92;71.81;99932.47;5113889;28;19919;-90
2023/04/29 02:44:18;;;;;;;;;;;;;;;6.99;71.06;99937.75;5113266;28;20312;-89
2023/04/29 02:46:44;;;;;;;;;;;;;;;7.00;71.68;99928.16;5118894;27;20002;-89
2023/04/29 02:49:11;;;;;;;;;;;;;;;6.92;71.81;99929.84;5113642;28;20399;-90
2023/04/29 02:51:36;;;;;;;;;;;;;;;6.92;71.83;99933.38;5127673;27;19983;-89
2023/04/29 02:54:02;;;;;;;;;;;;;;;6.94;71.85;99929.00;5134578;27;19911;-89
2023/04/29 02:56:28;;;;;;;;;;;;;;;6.92;71.94;99935.09;5132171;27;19911;-89
2023/04/29 02:58:53;;;;;;;;;;;;;;;6.88;71.97;99942.09;5130330;27;20304;-89
2023/04/29 03:01:19;;;;;;;;;;;;;;;6.98;71.93;99942.97;5100072;28;19965;-89
2023/04/29 03:03:50;;;;;;;;;;;;;;;7.04;72.09;99950.88;5105258;27;19965;-88
2023/04/29 03:09:26;;;;;;;;;;;;;;;6.82;71.79;99963.91;5112134;27;20004;-87
2023/04/29 03:12:01;;;;;;;;;;;;;;;6.76;72.12;99952.53;5095760;28;20392;-89
2023/04/29 03:14:30;;;;;;;;;;;;;;;6.71;72.78;99960.38;5113801;28;19946;-87
2023/04/29 03:16:58;;;;;;;;;;;;;;;6.85;72.17;99957.81;5124934;27;19911;-90
2023/04/29 03:19:45;;;;;;;;;;;;;;;6.80;72.76;99960.41;5115112;27;19915;-92
2023/04/29 03:22:13;;;;;;;;;;;;;;;6.74;72.53;99944.66;5102673;27;20030;-91
2023/04/29 03:24:39;;;;;;;;;;;;;;;6.79;72.71;99942.06;5132047;27;19911;-90
2023/04/29 03:33:52;;;;;;;;;;;;;;;;;;;;;
2023/04/29 03:37:00;;;;;;;;;;;;;;;;;;;;;
2023/04/29 03:42:28;;;;;;;;;;;;;;;6.82;75.06;99960.41;5113503;28;20364;-90
2023/04/29 04:39:20;;;;;;;;;;;;;;;9.05;69.17;99988.53;5961944;22;20385;-95
2023/04/29 05:11:45;;;;;;;;;;;;;;;9.10;68.98;99996.41;5046704;28;19927;-92
2023/04/29 05:14:13;;;;;;;;;;;;;;;9.34;69.99;100005.06;4993677;28;20004;-89
2023/04/29 05:17:10;;;;;;;;;;;;;;;;;;;;;
2023/04/29 05:22:41;;;;;;;;;;;;;;;9.68;67.84;100005.75;5030060;28;19977;-88
2023/04/29 05:25:09;;;;;;;;;;;;;;;9.63;67.33;100008.41;5030350;28;19920;-90
2023/04/29 05:27:45;;;;;;;;;;;;;;;9.56;67.67;100008.44;5030233;28;19920;-89
2023/04/29 05:30:36;;;;;;;;;;;;;;;9.78;67.02;100003.94;5030697;28;20014;-92
2023/04/29 05:33:40;;;;;;;;;;;;;;;9.91;67.00;100004.72;5048273;28;19921;-92
2023/04/29 05:36:14;;;;;;;;;;;;;;;10.15;66.45;100004.53;5039739;28;19919;-91
2023/04/29 05:38:41;;;;;;;;;;;;;;;10.53;66.39;99986.63;5031596;28;20418;-88
2023/04/29 05:41:18;;;;;;;;;;;;;;;10.72;65.85;99984.66;5047721;28;19913;-89
2023/04/29 05:43:44;;;;;;;;;;;;;;;10.95;65.75;99978.25;5002453;28;19943;-88
2023/04/29 05:55:15;;;;;;;;;;;;;;;12.07;60.50;99966.09;5048031;28;20006;-88
2023/04/29 05:57:43;;;;;;;;;;;;;;;11.90;58.37;99961.06;5043121;28;20423;-91
2023/04/29 06:00:09;;;;;;;;;;;;;;;12.00;58.80;99964.44;5045583;28;19940;-86
2023/04/29 06:05:59;;;;;;;;;;;;;;;12.02;59.33;99972.34;5004757;28;19923;-90
2023/04/29 06:08:54;;;;;;;;;;;;;;;12.08;59.13;99969.63;5008936;28;19979;-91
2023/04/29 06:40:16;;;;;;;;;;;;;;;14.97;50.23;99940.16;5012998;28;19980;-88
2023/04/29 06:52:33;;;;;;;;;;;;;;;15.53;47.31;99926.91;4993105;28;19932;-92
2023/04/29 06:55:32;;;;;;;;;;;;;;;15.93;43.53;99922.13;5007788;28;20049;-91
2023/04/29 06:58:07;;;;;;;;;;;;;;;15.43;45.54;99929.91;4990828;28;19914;-89
2023/04/29 07:00:33;;;;;;;;;;;;;;;15.09;46.17;99920.31;4980313;28;19913;-89
2023/04/29 07:02:59;;;;;;;;;;;;;;;15.85;45.41;99917.06;4991141;28;19913;-90
2023/04/29 07:05:26;;;;;;;;;;;;;;;16.29;45.38;99911.13;4991617;28;19972;-91
2023/04/29 07:07:52;;;;;;;;;;;;;;;16.77;42.64;99906.75;4991360;28;19917;-91
2023/04/29 07:10:26;;;;;;;;;;;;;;;16.98;42.28;99902.44;4992052;28;20630;-96
2023/04/29 07:13:22;;;;;;;;;;;;;;;16.32;43.02;99902.16;4991581;28;19936;-94
2023/04/29 07:15:53;;;;;;;;;;;;;;;16.50;43.90;99898.84;4991935;28;20018;-92
2023/04/29 07:21:48;;;;;;;;;;;;;;;18.07;42.12;99898.09;5050931;28;19928;-90
2023/04/29 07:24:13;;;;;;;;;;;;;;;18.38;39.36;99893.19;5052479;28;19916;-89
2023/04/29 07:26:39;;;;;;;;;;;;;;;18.76;39.90;99895.97;5056058;28;19919;-92
2023/04/29 07:29:04;;;;;;;;;;;;;;;18.39;38.97;99889.59;5032819;28;19940;-89
2023/04/29 07:31:30;;;;;;;;;;;;;;;18.33;37.81;99896.06;5047760;28;20375;-92
2023/04/29 07:33:56;;;;;;;;;;;;;;;17.90;38.25;99895.25;5052143;28;19978;-89
2023/04/29 07:36:22;;;;;;;;;;;;;;;17.86;40.83;99885.63;5034238;28;20430;-90
2023/04/29 07:38:47;;;;;;;;;;;;;;;18.57;38.65;99885.25;5051999;28;19923;-90
2023/04/29 07:41:12;;;;;;;;;;;;;;;18.91;37.03;99889.09;5049904;28;19921;-89
2023/04/29 07:43:38;;;;;;;;;;;;;;;19.03;37.54;99891.19;5051043;28;19924;-89
2023/04/29 07:46:03;;;;;;;;;;;;;;;18.85;38.82;99881.34;5051840;28;19920;-89
2023/04/29 07:48:28;;;;;;;;;;;;;;;19.21;37.97;99884.06;5052604;28;20351;-90
2023/04/29 07:50:54;;;;;;;;;;;;;;;19.23;39.23;99886.69;5034408;28;19970;-93
2023/04/29 07:56:56;;;;;;;;;;;;;;;19.89;35.14;99864.72;5054792;28;19962;-89
2023/04/29 07:59:21;;;;;;;;;;;;;;;19.85;37.04;99874.75;5049306;28;19978;-90
2023/04/29 08:01:47;;;;;;;;;;;;;;;19.46;36.33;99867.72;5050757;28;19917;-85
2023/04/29 08:04:12;;;;;;;;;;;;;;;20.08;36.84;99859.31;5052280;28;19993;-88
2023/04/29 08:06:37;;;;;;;;;;;;;;;18.92;36.67;99864.97;5051387;28;19916;-88
2023/04/29 08:09:03;;;;;;;;;;;;;;;18.55;39.39;99855.03;5052037;28;19925;-84
2023/04/29 08:11:28;;;;;;;;;;;;;;;18.76;38.13;99859.41;5051253;28;19912;-85
2023/04/29 08:13:55;;;;;;;;;;;;;;;19.19;36.87;99847.69;5048967;28;19919;-90
2023/04/29 08:16:21;;;;;;;;;;;;;;;19.29;38.98;99849.84;5049972;28;20324;-86
2023/04/29 08:18:46;;;;;;;;;;;;;;;20.20;37.31;99852.44;5028340;28;19995;-88
2023/04/29 08:21:11;;;;;;;;;;;;;;;20.60;35.38;99841.41;5046273;28;19917;-87
2023/04/29 08:23:37;;;;;;;;;;;;;;;20.47;36.33;99838.56;5049684;28;20007;-89
2023/04/29 08:26:06;;;;;;;;;;;;;;;20.87;36.08;99837.25;5053537;28;19924;-90
2023/04/29 08:28:35;;;;;;;;;;;;;;;20.79;33.50;99836.84;5049784;28;19928;-87
2023/04/29 08:31:00;;;;;;;;;;;;;;;20.74;35.32;99833.50;5050478;28;20463;-94
2023/04/29 08:33:26;;;;;;;;;;;;;;;20.85;32.77;99827.56;5051783;28;19968;-89
2023/04/29 08:35:59;;;;;;;;;;;;;;;21.01;34.46;99836.50;5018651;28;19921;-89
2023/04/29 08:38:24;;;;;;;;;;;;;;;21.11;34.12;99826.09;5051994;28;19916;-86
2023/04/29 08:40:49;;;;;;;;;;;;;;;20.89;33.37;99819.25;5051044;28;19963;-88
2023/04/29 08:43:16;;;;;;;;;;;;;;;20.97;34.67;99824.19;5051811;28;20680;-87
2023/04/29 08:45:42;;;;;;;;;;;;;;;21.38;31.16;99818.31;5050639;28;19919;-86
2023/04/29 08:48:07;;;;;;;;;;;;;;;21.84;32.81;99819.25;5050328;28;19913;-88
2023/04/29 08:50:38;;;;;;;;;;;;;;;21.14;32.35;99814.34;5050164;28;19919;-90
2023/04/29 08:53:05;;;;;;;;;;;;;;;20.48;32.86;99808.09;5050056;28;19920;-89
2023/04/29 08:58:35;;;;;;;;;;;;;;;20.63;34.45;99809.09;4950332;29;19983;-89
2023/04/29 09:01:01;;;;;;;;;;;;;;;20.78;35.21;99802.06;4949668;29;19914;-88
2023/04/29 09:03:30;;;;;;;;;;;;;;;21.05;35.39;99797.84;4949828;29;20009;-90
2023/04/29 09:05:58;;;;;;;;;;;;;;;21.36;34.69;99790.69;4950233;29;19915;-89
2023/04/29 09:08:24;;;;;;;;;;;;;;;21.87;33.71;99798.44;4949310;28;19973;-91
2023/04/29 09:10:50;;;;;;;;;;;;;;;21.60;31.47;99788.41;4949747;29;19915;-89
2023/04/29 09:13:29;;;;;;;;;;;;;;;21.52;32.92;99784.44;4949868;29;19914;-89
2023/04/29 09:15:54;;;;;;;;;;;;;;;21.55;31.20;99782.47;4933482;29;20345;-89
2023/04/29 09:18:38;;;;;;;;;;;;;;;21.56;30.05;99786.84;4949348;29;19925;-89
2023/04/29 09:21:19;;;;;;;;;;;;;;;21.41;29.74;99777.88;4952504;28;19954;-89
2023/04/29 09:23:45;;;;;;;;;;;;;;;21.10;33.49;99776.97;4968483;28;19917;-88
2023/04/29 09:26:11;;;;;;;;;;;;;;;21.35;32.54;99771.97;4969490;28;20393;-90
2023/04/29 09:28:38;;;;;;;;;;;;;;;21.54;30.73;99774.50;4968472;28;19996;-87
2023/04/29 09:31:05;;;;;;;;;;;;;;;21.48;30.67;99769.47;4936563;28;20347;-90
2023/04/29 09:33:31;;;;;;;;;;;;;;;20.38;31.85;99767.56;4963455;28;19948;-87
2023/04/29 09:35:56;;;;;;;;;;;;;;;20.72;31.37;99768.41;4993608;28;20407;-87
2023/04/29 09:38:21;;;;;;;;;;;;;;;20.86;31.84;99756.91;5009855;28;19972;-88
2023/04/29 09:40:47;;;;;;;;;;;;;;;21.00;32.13;99746.25;5008686;28;19917;-89
2023/04/29 09:43:13;;;;;;;;;;;;;;;20.33;31.51;99743.72;5009973;28;19920;-87
2023/04/29 09:45:40;;;;;;;;;;;;;;;20.54;31.80;99728.28;4992070;28;20248;-86
2023/04/29 09:48:07;;;;;;;;;;;;;;;20.38;31.74;99733.59;5010356;28;19961;-87
2023/04/29 09:50:38;;;;;;;;;;;;;;;20.24;33.25;99732.66;5010258;28;19909;-87
2023/04/29 09:53:08;;;;;;;;;;;;;;;21.02;32.72;99730.97;5009950;28;20007;-85
2023/04/29 09:55:56;;;;;;;;;;;;;;;20.61;33.50;99727.94;5009791;28;19910;-88
2023/04/29 09:58:35;;;;;;;;;;;;;;;20.64;32.08;99723.25;5010054;28;19992;-93
2023/04/29 10:01:01;;;;;;;;;;;;;;;20.86;29.74;99719.38;5010488;28;20318;-88
2023/04/29 10:03:32;;;;;;;;;;;;;;;20.84;30.52;99710.59;5010233;28;19917;-88
2023/04/29 10:06:28;;;;;;;;;;;;;;;21.02;29.12;99711.31;5009840;28;19956;-89
2023/04/29 10:08:54;;;;;;;;;;;;;;;20.48;28.06;99712.53;5009513;28;19960;-88
2023/04/29 10:11:19;;;;;;;;;;;;;;;20.22;30.59;99711.31;5009828;28;19974;-88
2023/04/29 10:13:45;;;;;;;;;;;;;;;20.20;27.31;99707.81;5009610;28;20367;-89
2023/04/29 10:16:10;;;;;;;;;;;;;;;20.50;26.69;99694.56;5010587;28;19948;-89
2023/04/29 10:18:36;;;;;;;;;;;;;;;20.70;28.99;99695.28;5009572;28;20387;-90
2023/04/29 10:21:02;;;;;;;;;;;;;;;20.43;28.84;99697.66;5020618;28;20015;-90
2023/04/29 10:23:29;;;;;;;;;;;;;;;20.42;29.86;99694.13;5049167;28;20361;-88
2023/04/29 10:25:54;;;;;;;;;;;;;;;20.39;27.71;99691.63;5047395;28;19920;-88
2023/04/29 10:28:22;;;;;;;;;;;;;;;20.50;26.39;99694.56;5049132;28;20000;-90
2023/04/29 10:30:50;;;;;;;;;;;;;;;20.12;26.44;99686.81;5048970;28;19913;-89
2023/04/29 10:33:20;;;;;;;;;;;;;;;20.58;27.59;99681.59;5049313;28;19917;-91
2023/04/29 10:35:47;;;;;;;;;;;;;;;20.37;28.63;99678.31;5030440;28;19913;-90
2023/04/29 10:38:16;;;;;;;;;;;;;;;20.22;26.76;99676.50;5048924;28;19913;-90
2023/04/29 10:40:48;;;;;;;;;;;;;;;20.42;26.45;99678.06;5048718;28;19913;-90
2023/04/29 10:43:26;;;;;;;;;;;;;;;20.70;25.07;99669.34;5007178;28;20284;-90
2023/04/29 10:46:23;;;;;;;;;;;;;;;20.49;25.70;99663.34;5006989;28;19913;-92
2023/04/29 10:51:47;;;;;;;;;;;;;;;20.77;24.44;99660.94;4948168;29;19922;-91
2023/04/29 10:54:24;;;;;;;;;;;;;;;20.80;26.25;99660.78;4948843;28;19914;-90
2023/04/29 10:57:16;;;;;;;;;;;;;;;20.47;24.97;99651.88;4952183;29;19925;-91
2023/04/29 11:00:08;;;;;;;;;;;;;;;20.71;24.66;99649.63;4952349;29;20010;-90
2023/04/29 11:08:46;;;;;;;;;;;;;;;20.52;27.82;99646.25;4969477;28;20038;-94
2023/04/29 11:11:19;;;;;;;;;;;;;;;20.39;28.79;99638.91;4971787;28;20028;-90
2023/04/29 11:16:55;;;;;;;;;;;;;;;20.40;25.81;99623.69;5010863;28;19921;-90
2023/04/29 11:22:29;;;;;;;;;;;;;;;20.49;25.31;99619.63;4995366;28;19940;-90
2023/04/29 11:28:50;;;;;;;;;;;;;;;;;;;;;
2023/04/29 11:32:02;;;;;;;;;;;;;;;;;;;;;
2023/04/29 11:34:48;;;;;;;;;;;;;;;21.10;24.92;99608.03;4931861;29;19929;-90
2023/04/29 11:40:48;;;;;;;;;;;;;;;21.48;29.68;99601.28;4895042;29;19955;-91
2023/04/29 11:43:19;;;;;;;;;;;;;;;21.99;29.43;99588.22;4895148;29;19967;-90
2023/04/29 11:45:51;;;;;;;;;;;;;;;22.18;29.24;99587.03;4895235;29;20009;-92
2023/04/29 11:48:23;;;;;;;;;;;;;;;22.30;27.01;99591.66;4895263;29;20005;-87
2023/04/29 11:51:23;;;;;;;;;;;;;;;;;;;;;
2023/04/29 11:53:50;;;;;;;;;;;;;;;22.22;25.25;99571.59;4895531;29;19959;-96
2023/04/29 11:56:24;;;;;;;;;;;;;;;22.38;26.17;99575.03;4895298;29;19938;-93
2023/04/29 11:59:11;;;;;;;;;;;;;;;22.42;24.71;99570.34;4878445;29;20382;-93
2023/04/29 12:01:36;;;;;;;;;;;;;;;22.44;24.38;99561.19;4900168;28;19918;-90
2023/04/29 12:04:06;;;;;;;;;;;;;;;22.21;24.07;99557.28;4935159;29;19917;-90
2023/04/29 12:06:31;;;;;;;;;;;;;;;22.69;23.58;99560.44;4934803;29;19919;-90
2023/04/29 12:09:18;;;;;;;;;;;;;;;;;;;;;
2023/04/29 12:15:25;;;;;;;;;;;;;;;22.87;27.74;99536.78;5032607;28;19920;-92
2023/04/29 12:21:00;;;;;;;;;;;;;;;22.60;27.58;99538.66;4952096;28;20493;-91
2023/04/29 12:29:43;;;;;;;;;;;;;;;22.68;26.16;99498.69;4950991;29;19918;-90
2023/04/29 12:32:11;;;;;;;;;;;;;;;23.09;28.32;99513.81;4950811;29;19914;-89
2023/04/29 12:34:38;;;;;;;;;;;;;;;23.18;28.37;99505.09;4934620;29;19914;-91
2023/04/29 12:37:04;;;;;;;;;;;;;;;23.45;24.45;99503.25;4950415;29;19919;-90
2023/04/29 12:39:30;;;;;;;;;;;;;;;23.19;24.32;99506.81;4950867;29;19950;-91
2023/04/29 12:41:58;;;;;;;;;;;;;;;22.99;25.00;99504.66;4951071;29;20036;-91
2023/04/29 12:44:24;;;;;;;;;;;;;;;22.75;24.33;99501.81;4950767;29;19922;-88
2023/04/29 12:46:52;;;;;;;;;;;;;;;23.24;24.42;99503.81;4950587;29;19918;-91
2023/04/29 12:49:23;;;;;;;;;;;;;;;23.05;25.63;99502.38;4934525;29;19921;-93
2023/04/29 12:51:51;;;;;;;;;;;;;;;22.85;25.29;99498.38;4950220;29;19915;-90
2023/04/29 12:54:16;;;;;;;;;;;;;;;22.25;23.97;99493.50;4953661;28;19945;-88
2023/04/29 12:56:46;;;;;;;;;;;;;;;22.50;24.08;99492.75;4979480;28;19914;-91
2023/04/29 12:59:18;;;;;;;;;;;;;;;22.09;23.99;99485.59;5050994;28;19970;-92
2023/04/29 13:01:44;;;;;;;;;;;;;;;22.11;24.73;99478.31;5051462;28;19912;-92
2023/04/29 13:04:14;;;;;;;;;;;;;;;22.45;24.85;99486.81;5051853;28;19962;-91
2023/04/29 13:09:44;;;;;;;;;;;;;;;22.71;26.63;99472.47;5009008;28;19917;-90
2023/04/29 13:12:38;;;;;;;;;;;;;;;22.81;28.53;99474.50;5009417;28;20390;-91
2023/04/29 13:18:40;;;;;;;;;;;;;;;22.71;26.27;99458.16;5010260;28;19981;-92
2023/04/29 15:11:06;;;;;;;;;;;;;;;22.44;23.16;99381.13;5780647;22;19945;-93
2023/04/29 15:13:32;;;;;;;;;;;;;;;22.49;23.81;99384.38;5095469;28;19922;-84
2023/04/29 15:15:57;;;;;;;;;;;;;;;22.50;24.60;99390.63;5113597;28;19912;-84
2023/04/29 15:18:25;;;;;;;;;;;;;;;22.57;24.95;99381.16;5113440;28;19918;-94
2023/04/29 15:20:51;;;;;;;;;;;;;;;22.49;25.60;99378.13;5090759;28;19968;-92
2023/04/29 15:23:19;;;;;;;;;;;;;;;22.40;26.51;99390.41;5091505;28;19953;-93
2023/04/29 15:25:44;;;;;;;;;;;;;;;22.28;24.26;99384.00;5114356;28;19916;-89
2023/04/29 15:28:10;;;;;;;;;;;;;;;22.27;24.52;99384.09;5095794;28;20513;-84
2023/04/29 15:30:35;;;;;;;;;;;;;;;22.15;24.57;99385.78;5100816;28;19919;-91
2023/04/29 15:33:00;;;;;;;;;;;;;;;22.01;26.39;99378.66;5105157;28;20048;-88
2023/04/29 15:35:26;;;;;;;;;;;;;;;21.81;27.37;99374.63;5109049;28;20013;-88
2023/04/29 15:37:55;;;;;;;;;;;;;;;21.70;26.15;99375.34;5112221;28;20048;-90
2023/04/29 15:40:20;;;;;;;;;;;;;;;21.58;26.61;99378.84;5109236;28;19911;-87
2023/04/29 15:42:46;;;;;;;;;;;;;;;21.52;27.39;99377.44;5112650;28;19973;-87
2023/04/29 15:45:11;;;;;;;;;;;;;;;21.26;26.95;99373.75;5113336;28;19916;-87
2023/04/29 15:47:37;;;;;;;;;;;;;;;21.23;26.82;99373.94;5113084;28;19912;-87
2023/04/29 15:50:02;;;;;;;;;;;;;;;21.32;26.28;99373.34;5112777;28;19955;-88
2023/04/29 15:52:28;;;;;;;;;;;;;;;21.25;25.29;99374.69;5112930;28;20034;-87
2023/04/29 15:54:53;;;;;;;;;;;;;;;21.40;26.16;99375.53;5113026;28;19911;-88
2023/04/29 15:57:18;;;;;;;;;;;;;;;21.36;25.89;99374.84;5095130;28;19915;-87
2023/04/29 15:59:44;;;;;;;;;;;;;;;21.46;25.34;99372.44;5113194;28;19916;-88
2023/04/29 16:02:10;;;;;;;;;;;;;;;21.51;26.09;99374.84;5106688;28;19919;-90
2023/04/29 16:04:38;;;;;;;;;;;;;;;21.41;26.46;99374.53;5113136;28;19916;-88
2023/04/29 16:07:04;;;;;;;;;;;;;;;21.31;25.38;99374.28;5112419;28;19915;-88
2023/04/29 16:09:32;;;;;;;;;;;;;;;21.31;25.71;99370.75;5112996;28;19991;-89
2023/04/29 16:11:57;;;;;;;;;;;;;;;21.32;26.02;99369.78;5094174;28;19915;-88
2023/04/29 16:14:23;;;;;;;;;;;;;;;21.31;25.80;99365.38;5113585;28;20020;-88
2023/04/29 16:16:48;;;;;;;;;;;;;;;21.26;25.83;99366.53;5110566;28;19915;-88
2023/04/29 16:19:14;;;;;;;;;;;;;;;21.13;25.99;99362.91;5112723;28;19938;-88
2023/04/29 16:21:40;;;;;;;;;;;;;;;21.16;25.65;99376.13;5094154;28;19912;-88
2023/04/29 16:24:06;;;;;;;;;;;;;;;21.21;27.02;99367.78;5112945;28;20372;-88
2023/04/29 16:26:32;;;;;;;;;;;;;;;21.05;27.43;99379.53;5112625;28;19912;-88
2023/04/29 16:28:58;;;;;;;;;;;;;;;20.88;27.22;99383.25;5094361;28;19917;-88
2023/04/29 16:31:23;;;;;;;;;;;;;;;20.78;28.45;99384.78;5094298;28;19911;-88
2023/04/29 16:33:49;;;;;;;;;;;;;;;20.88;29.42;99387.75;5112225;28;19912;-88
2023/04/29 16:36:14;;;;;;;;;;;;;;;20.68;30.15;99391.66;5112560;28;19916;-89
2023/04/29 16:38:42;;;;;;;;;;;;;;;20.79;31.02;99391.00;5111102;28;19966;-89
2023/04/29 16:41:08;;;;;;;;;;;;;;;20.68;31.84;99397.91;5091254;28;20465;-88
2023/04/29 16:43:34;;;;;;;;;;;;;;;20.57;31.38;99394.97;5073078;28;19999;-88
2023/04/29 16:45:59;;;;;;;;;;;;;;;20.50;32.15;99402.53;5070730;28;19916;-88
2023/04/29 16:48:37;;;;;;;;;;;;;;;20.39;32.48;99400.50;5111449;28;19916;-93
2023/04/29 16:51:03;;;;;;;;;;;;;;;20.19;32.27;99403.53;5111962;28;20361;-88
2023/04/29 16:53:28;;;;;;;;;;;;;;;20.30;31.90;99409.09;5110899;28;19942;-88
2023/04/29 16:55:54;;;;;;;;;;;;;;;20.36;31.13;99403.38;5111677;28;20339;-86
2023/04/29 16:58:20;;;;;;;;;;;;;;;20.24;31.00;99403.25;5111034;28;19938;-87
2023/04/29 17:00:46;;;;;;;;;;;;;;;20.22;31.44;99408.69;5111623;28;19918;-85
2023/04/29 17:03:11;;;;;;;;;;;;;;;20.13;31.97;99406.56;5093932;28;20002;-86
2023/04/29 17:05:40;;;;;;;;;;;;;;;19.98;32.04;99411.00;5106623;28;19927;-86
2023/04/29 17:08:05;;;;;;;;;;;;;;;19.91;31.84;99414.97;5073477;28;19920;-87
2023/04/29 17:10:31;;;;;;;;;;;;;;;19.96;32.09;99415.59;5094700;28;19988;-85
2023/04/29 17:13:15;;;;;;;;;;;;;;;19.91;32.59;99417.63;5112049;28;19919;-87
2023/04/29 17:15:40;;;;;;;;;;;;;;;20.07;32.75;99413.13;5092945;28;19914;-86
2023/04/29 17:18:05;;;;;;;;;;;;;;;19.94;34.53;99420.13;5111621;28;20377;-86
2023/04/29 17:20:31;;;;;;;;;;;;;;;19.91;36.65;99410.50;5097738;28;19915;-86
2023/04/29 17:22:56;;;;;;;;;;;;;;;19.73;37.01;99412.38;5090393;28;19911;-90
2023/04/29 17:25:22;;;;;;;;;;;;;;;19.52;36.27;99408.25;5107488;28;19912;-86
2023/04/29 17:27:47;;;;;;;;;;;;;;;19.46;36.94;99412.13;5111134;28;20414;-86
2023/04/29 17:30:13;;;;;;;;;;;;;;;19.56;38.05;99412.50;5111294;28;19911;-86
2023/04/29 17:32:38;;;;;;;;;;;;;;;19.32;38.57;99418.25;5111448;28;20391;-86
2023/04/29 17:35:05;;;;;;;;;;;;;;;19.25;40.25;99416.88;5093004;28;20296;-87
2023/04/29 17:37:30;;;;;;;;;;;;;;;19.20;41.61;99424.25;5110063;28;20061;-87
2023/04/29 17:39:56;;;;;;;;;;;;;;;19.10;42.12;99427.44;5111184;28;20346;-86
2023/04/29 17:42:21;;;;;;;;;;;;;;;18.96;40.67;99438.88;5110626;28;19912;-87
2023/04/29 17:44:47;;;;;;;;;;;;;;;18.63;38.15;99436.19;5110263;28;20081;-87
2023/04/29 17:47:13;;;;;;;;;;;;;;;18.25;37.81;99444.34;5110264;28;19951;-88
2023/04/29 17:49:39;;;;;;;;;;;;;;;18.18;36.13;99440.25;5110556;28;19915;-89
2023/04/29 17:52:04;;;;;;;;;;;;;;;18.29;36.32;99443.25;5111054;28;19912;-87
2023/04/29 17:54:30;;;;;;;;;;;;;;;18.43;36.12;99442.56;5110683;28;19921;-87
2023/04/29 17:56:56;;;;;;;;;;;;;;;18.49;36.35;99442.25;5111241;28;20335;-86
2023/04/29 17:59:21;;;;;;;;;;;;;;;18.68;36.19;99449.28;5109602;28;19915;-88
2023/04/29 18:01:47;;;;;;;;;;;;;;;18.78;35.83;99448.72;5108092;28;20389;-88
2023/04/29 18:04:20;;;;;;;;;;;;;;;18.92;35.61;99450.69;5104941;28;19968;-88
2023/04/29 18:06:51;;;;;;;;;;;;;;;18.70;36.36;99456.25;5103495;28;20484;-89
2023/04/29 18:09:17;;;;;;;;;;;;;;;18.76;36.35;99450.59;5102379;28;19915;-89
2023/04/29 18:11:47;;;;;;;;;;;;;;;18.94;37.26;99454.16;5093678;28;20251;-90
2023/04/29 18:14:13;;;;;;;;;;;;;;;18.77;37.18;99456.81;5091298;28;19919;-90
2023/04/29 18:16:38;;;;;;;;;;;;;;;18.71;37.79;99451.81;5109632;28;19916;-90
2023/04/29 18:19:03;;;;;;;;;;;;;;;18.55;40.19;99454.38;5095387;28;19915;-91
2023/04/29 18:21:32;;;;;;;;;;;;;;;18.55;39.58;99457.06;5112559;28;19916;-93
2023/04/29 18:23:58;;;;;;;;;;;;;;;18.32;40.04;99459.13;5114276;28;20400;-90
2023/04/29 18:26:23;;;;;;;;;;;;;;;18.31;41.15;99457.38;5114578;28;19907;-90
2023/04/29 18:28:49;;;;;;;;;;;;;;;18.19;41.56;99458.84;5114275;28;19923;-90
2023/04/29 18:31:14;;;;;;;;;;;;;;;18.23;41.27;99471.13;5100353;28;19960;-89
2023/04/29 18:33:40;;;;;;;;;;;;;;;18.19;41.39;99466.88;5096642;28;19908;-92
2023/04/29 18:36:06;;;;;;;;;;;;;;;18.22;42.20;99466.72;5115867;28;19918;-89
2023/04/29 18:38:31;;;;;;;;;;;;;;;18.11;43.08;99463.72;5115456;28;19912;-88
2023/04/29 18:40:57;;;;;;;;;;;;;;;17.96;43.81;99468.00;5114300;28;20321;-89
2023/04/29 18:43:27;;;;;;;;;;;;;;;17.91;44.22;99464.69;5099654;28;19916;-90
2023/04/29 18:45:56;;;;;;;;;;;;;;;17.91;44.30;99470.03;5104149;28;19961;-87
2023/04/29 18:48:21;;;;;;;;;;;;;;;17.91;43.85;99474.53;5106982;28;19919;-89
2023/04/29 18:50:49;;;;;;;;;;;;;;;17.94;44.27;99475.22;5075509;28;19924;-88
2023/04/29 18:53:14;;;;;;;;;;;;;;;17.78;45.53;99475.09;5091297;28;20296;-86
2023/04/29 18:55:40;;;;;;;;;;;;;;;17.75;45.89;99472.56;5094346;28;19923;-88
2023/04/29 18:58:05;;;;;;;;;;;;;;;17.77;45.66;99477.81;5108535;28;20423;-89
2023/04/29 19:00:31;;;;;;;;;;;;;;;17.74;45.83;99480.63;5103442;28;19958;-90
2023/04/29 19:02:56;;;;;;;;;;;;;;;17.70;46.76;99485.25;5101160;28;19911;-89
2023/04/29 19:05:22;;;;;;;;;;;;;;;17.66;47.55;99489.88;5085936;28;20461;-90
2023/04/29 19:07:47;;;;;;;;;;;;;;;17.58;48.74;99486.72;5074680;28;19919;-89
2023/04/29 19:10:13;;;;;;;;;;;;;;;17.57;48.82;99492.97;5104674;28;19919;-89
2023/04/29 19:12:38;;;;;;;;;;;;;;;17.60;48.47;99489.31;5105913;28;20018;-88
2023/04/29 19:15:04;;;;;;;;;;;;;;;17.59;48.98;99485.75;5103849;28;20017;-89
2023/04/29 19:17:29;;;;;;;;;;;;;;;17.63;50.46;99481.16;5109433;28;19915;-89
2023/04/29 19:19:55;;;;;;;;;;;;;;;17.62;49.80;99485.59;5099284;28;19915;-88
2023/04/29 19:22:20;;;;;;;;;;;;;;;17.58;49.57;99484.03;5087004;28;19912;-87